Terminal Aerodrome Forecast
Issued by NWS

Home | Current Version | Previous Version | Text Only | Print | Product List | Glossary On
Versions: 1 2 3 4 5 6 7 8 9 10 11 12 13 14 15 16 17 18 19 20 21 22 23 24 25
556
FTUS45 KBYZ 121129
TAFLVM
TAF
KLVM 121129Z 1212/1312 VRB06KT P6SM VCSH BKN060 OVC090
     FM121600 23010G20KT P6SM SCT100 BKN150
     FM130100 22020G30KT P6SM SCT200=

USA.gov is the U.S. government's official web portal to all federal, state and local government web resources and services.